Time;durP1;ratioP1;P1;durP2;ratioP2;P2;SDS_P1;SDS_P2;PMS_P1;PMS_P2;Temp;Humidity;BMP_temperature;BMP_pressure;BME280_temperature;BME280_humidity;BME280_pressure;Samples;Min_cycle;Max_cycle;Signal;HPM_P1;HPM_P2
2023/07/11 00:01:50;;;;;;;0.10;0.10;;;;;;;;;;5130325;27;20058;-51
2023/07/11 00:04:16;;;;;;;0.10;0.10;;;;;;;;;;5128942;27;20054;-52
2023/07/11 00:06:41;;;;;;;0.10;0.10;;;;;;;;;;5127605;27;20050;-52
2023/07/11 00:09:07;;;;;;;0.10;0.10;;;;;;;;;;5129330;28;20058;-51
2023/07/11 00:11:32;;;;;;;0.10;0.10;;;;;;;;;;5126342;27;20054;-51
2023/07/11 00:13:59;;;;;;;0.10;0.10;;;;;;;;;;5149342;27;20047;-52
2023/07/11 00:16:25;;;;;;;0.10;0.10;;;;;;;;;;5149144;27;20055;-51
2023/07/11 00:18:50;;;;;;;0.10;0.10;;;;;;;;;;5149422;27;20053;-50
2023/07/11 00:21:16;;;;;;;0.10;0.10;;;;;;;;;;5132229;27;20062;-52
2023/07/11 00:23:41;;;;;;;0.10;0.10;;;;;;;;;;5129476;27;20050;-52
2023/07/11 00:26:07;;;;;;;0.10;0.10;;;;;;;;;;5128275;28;20097;-52
2023/07/11 00:28:33;;;;;;;0.10;0.10;;;;;;;;;;5128377;28;20054;-51
2023/07/11 00:30:59;;;;;;;0.20;0.20;;;;;;;;;;5116867;28;20043;-51
2023/07/11 00:33:24;;;;;;;0.10;0.10;;;;;;;;;;5135340;27;20046;-52
2023/07/11 00:35:51;;;;;;;0.10;0.10;;;;;;;;;;5149235;27;20157;-51
2023/07/11 00:38:16;;;;;;;0.10;0.10;;;;;;;;;;5149151;27;20058;-52
2023/07/11 00:40:43;;;;;;;0.10;0.10;;;;;;;;;;5131129;27;20407;-51
2023/07/11 00:43:10;;;;;;;0.20;0.20;;;;;;;;;;5128667;28;20047;-52
2023/07/11 00:45:55;;;;;;;0.10;0.10;;;;;;;;;;5128371;28;20047;-52
2023/07/11 00:48:21;;;;;;;0.17;0.17;;;;;;;;;;5113095;28;20455;-51
2023/07/11 00:50:47;;;;;;;0.10;0.10;;;;;;;;;;5128546;28;20050;-51
2023/07/11 00:53:13;;;;;;;0.10;0.10;;;;;;;;;;5128356;28;20081;-51
2023/07/11 00:55:38;;;;;;;0.10;0.10;;;;;;;;;;5128832;27;20055;-52
2023/07/11 00:58:05;;;;;;;0.20;0.20;;;;;;;;;;5131143;27;20051;-52
2023/07/11 01:00:30;;;;;;;0.10;0.10;;;;;;;;;;5120445;28;20043;-52
2023/07/11 01:02:56;;;;;;;0.10;0.10;;;;;;;;;;5108275;28;20051;-50
2023/07/11 01:05:21;;;;;;;0.10;0.10;;;;;;;;;;5110780;28;20044;-52
2023/07/11 01:07:47;;;;;;;0.17;0.17;;;;;;;;;;5111365;28;20043;-52
2023/07/11 01:10:12;;;;;;;0.10;0.10;;;;;;;;;;5110591;28;20048;-52
2023/07/11 01:12:43;;;;;;;0.10;0.10;;;;;;;;;;5111243;28;20393;-52
2023/07/11 01:15:09;;;;;;;0.10;0.10;;;;;;;;;;5110762;28;20043;-52
2023/07/11 01:17:35;;;;;;;0.10;0.10;;;;;;;;;;5110974;28;20530;-52
2023/07/11 01:20:03;;;;;;;0.10;0.10;;;;;;;;;;5110785;28;20521;-51
2023/07/11 01:22:29;;;;;;;0.10;0.10;;;;;;;;;;5133426;27;20055;-52
2023/07/11 01:24:57;;;;;;;0.10;0.10;;;;;;;;;;5131049;27;20392;-50
2023/07/11 01:27:22;;;;;;;0.10;0.10;;;;;;;;;;5131411;27;20051;-51
2023/07/11 01:29:48;;;;;;;0.10;0.10;;;;;;;;;;5111062;28;20055;-49
2023/07/11 01:32:14;;;;;;;0.10;0.10;;;;;;;;;;5110511;28;20047;-52
2023/07/11 01:34:40;;;;;;;0.10;0.10;;;;;;;;;;5129904;27;20043;-51
2023/07/11 01:37:06;;;;;;;0.10;0.10;;;;;;;;;;5151792;27;20062;-52
2023/07/11 01:39:31;;;;;;;0.10;0.10;;;;;;;;;;5150765;27;20290;-52
2023/07/11 01:41:57;;;;;;;0.10;0.10;;;;;;;;;;5132311;27;20457;-50
2023/07/11 01:44:23;;;;;;;0.10;0.10;;;;;;;;;;5130857;28;20494;-51
2023/07/11 01:46:49;;;;;;;0.10;0.10;;;;;;;;;;5130595;28;20054;-52
2023/07/11 01:49:14;;;;;;;0.10;0.10;;;;;;;;;;5131154;28;20138;-53
2023/07/11 01:51:43;;;;;;;0.10;0.10;;;;;;;;;;5113052;28;20039;-51
2023/07/11 01:54:09;;;;;;;0.10;0.10;;;;;;;;;;5110110;28;20078;-52
2023/07/11 01:56:34;;;;;;;0.10;0.10;;;;;;;;;;5110453;28;20441;-52
2023/07/11 01:59:00;;;;;;;0.10;0.10;;;;;;;;;;5127331;27;20047;-52
2023/07/11 02:01:25;;;;;;;0.10;0.10;;;;;;;;;;5115387;28;20100;-52
2023/07/11 02:03:51;;;;;;;0.10;0.10;;;;;;;;;;5110523;28;20087;-51
2023/07/11 02:06:16;;;;;;;0.10;0.10;;;;;;;;;;5109622;28;20412;-52
2023/07/11 02:08:42;;;;;;;0.10;0.10;;;;;;;;;;5110208;28;20071;-52
2023/07/11 02:11:07;;;;;;;0.10;0.10;;;;;;;;;;5110113;28;20100;-52
2023/07/11 02:13:33;;;;;;;0.10;0.10;;;;;;;;;;5109965;28;20061;-52
2023/07/11 02:15:58;;;;;;;0.10;0.10;;;;;;;;;;5109915;28;20049;-52
2023/07/11 02:18:24;;;;;;;0.10;0.10;;;;;;;;;;5110206;28;20048;-52
2023/07/11 02:20:50;;;;;;;0.10;0.10;;;;;;;;;;5109845;28;20044;-52
2023/07/11 02:23:15;;;;;;;0.10;0.10;;;;;;;;;;5122741;27;20391;-52
2023/07/11 02:25:41;;;;;;;0.10;0.10;;;;;;;;;;5150958;27;20059;-52
2023/07/11 02:28:07;;;;;;;0.10;0.10;;;;;;;;;;5149703;27;20187;-51
2023/07/11 02:30:33;;;;;;;0.17;0.17;;;;;;;;;;5143503;27;20047;-43
2023/07/11 02:32:59;;;;;;;0.10;0.10;;;;;;;;;;5130860;28;20043;-42
2023/07/11 02:35:25;;;;;;;0.10;0.10;;;;;;;;;;5130135;27;20191;-43
2023/07/11 02:37:51;;;;;;;0.10;0.10;;;;;;;;;;5129976;27;20043;-44
2023/07/11 02:40:17;;;;;;;0.20;0.20;;;;;;;;;;5129213;28;20043;-44
2023/07/11 02:42:42;;;;;;;0.20;0.20;;;;;;;;;;5130687;27;20479;-43
2023/07/11 02:45:08;;;;;;;0.10;0.10;;;;;;;;;;5129595;28;20586;-43
2023/07/11 02:47:34;;;;;;;0.10;0.10;;;;;;;;;;5130221;28;20078;-46
2023/07/11 02:50:01;;;;;;;0.10;0.10;;;;;;;;;;5126976;28;20491;-53
2023/07/11 02:52:27;;;;;;;0.10;0.10;;;;;;;;;;5109708;28;20047;-53
2023/07/11 02:54:52;;;;;;;0.10;0.10;;;;;;;;;;5109194;28;20047;-53
2023/07/11 02:57:18;;;;;;;0.10;0.10;;;;;;;;;;5109560;28;20047;-53
2023/07/11 02:59:43;;;;;;;0.10;0.10;;;;;;;;;;5113516;27;20556;-53
2023/07/11 03:02:09;;;;;;;0.10;0.10;;;;;;;;;;5130155;27;20498;-52
2023/07/11 03:04:34;;;;;;;0.10;0.10;;;;;;;;;;5130026;28;20054;-52
2023/07/11 03:07:00;;;;;;;0.10;0.10;;;;;;;;;;5129524;28;20139;-52
2023/07/11 03:09:26;;;;;;;0.10;0.10;;;;;;;;;;5129576;28;20051;-52
2023/07/11 03:11:52;;;;;;;0.10;0.10;;;;;;;;;;5109849;28;20295;-53
2023/07/11 03:14:18;;;;;;;0.10;0.10;;;;;;;;;;5109263;28;20071;-53
2023/07/11 03:16:44;;;;;;;0.10;0.10;;;;;;;;;;5108932;28;20052;-51
2023/07/11 03:19:09;;;;;;;0.10;0.10;;;;;;;;;;5109335;28;20435;-53
2023/07/11 03:21:35;;;;;;;0.10;0.10;;;;;;;;;;5109466;28;20054;-51
2023/07/11 03:24:01;;;;;;;0.10;0.10;;;;;;;;;;5109682;27;20071;-52
2023/07/11 03:26:26;;;;;;;0.10;0.10;;;;;;;;;;5128223;27;20501;-53
2023/07/11 03:28:52;;;;;;;0.10;0.10;;;;;;;;;;5130361;27;20138;-53
2023/07/11 03:31:17;;;;;;;0.10;0.10;;;;;;;;;;5115703;28;20128;-52
2023/07/11 03:33:45;;;;;;;0.10;0.10;;;;;;;;;;5109478;28;20129;-51
2023/07/11 03:36:11;;;;;;;0.10;0.10;;;;;;;;;;5109270;28;20043;-52
2023/07/11 03:38:36;;;;;;;0.10;0.10;;;;;;;;;;5135301;27;20069;-52
2023/07/11 03:41:02;;;;;;;0.10;0.10;;;;;;;;;;5121217;28;20083;-52
2023/07/11 03:43:27;;;;;;;0.10;0.10;;;;;;;;;;5130830;27;20043;-53
2023/07/11 03:45:53;;;;;;;0.10;0.10;;;;;;;;;;5132204;27;20099;-52
2023/07/11 03:48:18;;;;;;;0.10;0.10;;;;;;;;;;5129610;28;20051;-52
2023/07/11 03:50:44;;;;;;;0.10;0.10;;;;;;;;;;5120082;28;20047;-50
2023/07/11 03:53:09;;;;;;;0.10;0.10;;;;;;;;;;5109243;28;20063;-52
2023/07/11 03:55:35;;;;;;;0.10;0.10;;;;;;;;;;5108943;28;20163;-52
2023/07/11 03:58:00;;;;;;;0.10;0.10;;;;;;;;;;5109126;28;20055;-52
2023/07/11 04:00:26;;;;;;;0.10;0.10;;;;;;;;;;5108258;28;20089;-52
2023/07/11 04:02:52;;;;;;;0.10;0.10;;;;;;;;;;5136812;27;20114;-52
2023/07/11 04:05:17;;;;;;;0.10;0.10;;;;;;;;;;5149668;27;20057;-52
2023/07/11 04:07:43;;;;;;;0.10;0.10;;;;;;;;;;5149131;27;20047;-51
2023/07/11 04:10:09;;;;;;;0.10;0.10;;;;;;;;;;5144699;27;20626;-52
2023/07/11 04:12:34;;;;;;;0.10;0.10;;;;;;;;;;5129141;28;20051;-53
2023/07/11 04:15:00;;;;;;;0.10;0.10;;;;;;;;;;5127941;28;20043;-53
2023/07/11 04:17:25;;;;;;;0.10;0.10;;;;;;;;;;5128777;28;20051;-52
2023/07/11 04:19:51;;;;;;;0.10;0.10;;;;;;;;;;5128618;28;20047;-52
2023/07/11 04:22:16;;;;;;;0.10;0.10;;;;;;;;;;5129069;28;20065;-53
2023/07/11 04:24:42;;;;;;;0.10;0.10;;;;;;;;;;5128905;28;20047;-52
2023/07/11 04:27:08;;;;;;;0.10;0.10;;;;;;;;;;5134516;27;20104;-50
2023/07/11 04:29:34;;;;;;;0.10;0.10;;;;;;;;;;5149632;27;20047;-52
2023/07/11 04:31:59;;;;;;;0.10;0.10;;;;;;;;;;5129006;27;20039;-51
2023/07/11 04:34:25;;;;;;;0.10;0.10;;;;;;;;;;5128623;28;20058;-52
2023/07/11 04:36:50;;;;;;;0.10;0.10;;;;;;;;;;5128531;28;20045;-52
2023/07/11 04:39:16;;;;;;;0.10;0.10;;;;;;;;;;5128290;27;20039;-53
2023/07/11 04:41:41;;;;;;;0.10;0.10;;;;;;;;;;5116916;27;20481;-53
2023/07/11 04:44:07;;;;;;;0.10;0.10;;;;;;;;;;5111485;28;20050;-52
2023/07/11 04:46:32;;;;;;;0.10;0.10;;;;;;;;;;5125119;27;20599;-52
2023/07/11 04:48:58;;;;;;;0.10;0.10;;;;;;;;;;5131679;28;20043;-52
2023/07/11 04:51:23;;;;;;;0.10;0.10;;;;;;;;;;5116552;28;20055;-52
2023/07/11 04:53:49;;;;;;;0.10;0.10;;;;;;;;;;5111285;28;20044;-51
2023/07/11 04:56:14;;;;;;;0.10;0.10;;;;;;;;;;5111093;28;20051;-53
2023/07/11 04:58:40;;;;;;;0.10;0.10;;;;;;;;;;5111490;28;20080;-52
2023/07/11 05:01:07;;;;;;;0.10;0.10;;;;;;;;;;5110684;28;20040;-53
2023/07/11 05:03:32;;;;;;;0.10;0.10;;;;;;;;;;5119155;27;20077;-52
2023/07/11 05:05:58;;;;;;;0.10;0.10;;;;;;;;;;5131922;27;20398;-52
2023/07/11 05:08:24;;;;;;;0.10;0.10;;;;;;;;;;5131429;28;20075;-56
2023/07/11 05:10:51;;;;;;;0.10;0.10;;;;;;;;;;5120955;28;20058;-52
2023/07/11 05:13:17;;;;;;;0.10;0.10;;;;;;;;;;5111162;28;20058;-52
2023/07/11 05:15:42;;;;;;;0.10;0.10;;;;;;;;;;5110306;28;20044;-52
2023/07/11 05:18:08;;;;;;;0.20;0.20;;;;;;;;;;5110398;28;20059;-50
2023/07/11 05:20:33;;;;;;;0.10;0.10;;;;;;;;;;5110002;28;20044;-52
2023/07/11 05:22:59;;;;;;;0.10;0.10;;;;;;;;;;5110859;28;20048;-53
2023/07/11 05:25:24;;;;;;;0.10;0.10;;;;;;;;;;5110542;28;20044;-53
2023/07/11 05:27:50;;;;;;;0.10;0.10;;;;;;;;;;5112700;27;20063;-53
2023/07/11 05:30:15;;;;;;;0.10;0.10;;;;;;;;;;5142775;27;20387;-53
2023/07/11 05:32:41;;;;;;;0.10;0.10;;;;;;;;;;5135241;27;20058;-52
2023/07/11 05:35:06;;;;;;;0.10;0.10;;;;;;;;;;5151646;27;20141;-52
2023/07/11 05:37:32;;;;;;;0.10;0.10;;;;;;;;;;5151510;27;20082;-51
2023/07/11 05:39:58;;;;;;;0.10;0.10;;;;;;;;;;5127109;28;20047;-52
2023/07/11 05:42:23;;;;;;;0.10;0.10;;;;;;;;;;5133115;27;20051;-52
2023/07/11 05:44:49;;;;;;;0.10;0.10;;;;;;;;;;5130761;27;20472;-53
2023/07/11 05:47:14;;;;;;;0.10;0.10;;;;;;;;;;5134735;27;20539;-53
2023/07/11 05:49:40;;;;;;;0.15;0.15;;;;;;;;;;5149906;27;20051;-52
2023/07/11 05:52:05;;;;;;;0.10;0.10;;;;;;;;;;5130986;28;20415;-53
2023/07/11 05:54:31;;;;;;;0.10;0.10;;;;;;;;;;5130110;28;20047;-52
2023/07/11 05:56:57;;;;;;;0.10;0.10;;;;;;;;;;5131118;28;20042;-52
2023/07/11 05:59:22;;;;;;;0.10;0.10;;;;;;;;;;5131098;28;20051;-52
2023/07/11 06:01:48;;;;;;;0.10;0.10;;;;;;;;;;5130769;27;20051;-53
2023/07/11 06:04:14;;;;;;;0.10;0.10;;;;;;;;;;5131112;28;20111;-52
2023/07/11 06:06:41;;;;;;;0.10;0.10;;;;;;;;;;5147137;27;20089;-53
2023/07/11 06:09:08;;;;;;;0.10;0.10;;;;;;;;;;5151411;27;20232;-51
2023/07/11 06:11:33;;;;;;;0.10;0.10;;;;;;;;;;5134196;27;20051;-52
2023/07/11 06:13:59;;;;;;;0.10;0.10;;;;;;;;;;5123812;28;20077;-53
2023/07/11 06:16:24;;;;;;;0.10;0.10;;;;;;;;;;5130228;27;20406;-52
2023/07/11 06:18:51;;;;;;;0.10;0.10;;;;;;;;;;5130893;27;20130;-53
2023/07/11 06:21:17;;;;;;;0.10;0.10;;;;;;;;;;5130309;28;20479;-53
2023/07/11 06:23:43;;;;;;;0.10;0.10;;;;;;;;;;5130755;28;20058;-52
2023/07/11 06:26:09;;;;;;;0.10;0.10;;;;;;;;;;5129974;28;20044;-52
2023/07/11 06:28:35;;;;;;;0.10;0.10;;;;;;;;;;5130294;27;20058;-52
2023/07/11 06:31:04;;;;;;;0.10;0.10;;;;;;;;;;5133383;27;20384;-53
2023/07/11 06:33:33;;;;;;;0.10;0.10;;;;;;;;;;5130426;27;20102;-50
2023/07/11 06:35:59;;;;;;;0.10;0.10;;;;;;;;;;5131847;27;20134;-51
2023/07/11 06:38:24;;;;;;;0.10;0.10;;;;;;;;;;5122060;27;20044;-53
2023/07/11 06:40:51;;;;;;;0.10;0.10;;;;;;;;;;5119806;28;20134;-53
2023/07/11 06:43:17;;;;;;;0.10;0.10;;;;;;;;;;5135062;27;20054;-53
2023/07/11 06:45:44;;;;;;;0.10;0.10;;;;;;;;;;5109479;28;20074;-51
2023/07/11 06:48:10;;;;;;;0.10;0.10;;;;;;;;;;5110022;28;20058;-52
2023/07/11 06:50:35;;;;;;;0.10;0.10;;;;;;;;;;5126889;27;20043;-52
2023/07/11 06:53:01;;;;;;;0.10;0.10;;;;;;;;;;5110150;28;20050;-53
2023/07/11 06:55:26;;;;;;;0.20;0.20;;;;;;;;;;5110006;28;20044;-53
2023/07/11 06:57:52;;;;;;;0.10;0.10;;;;;;;;;;5110353;28;20095;-53
2023/07/11 07:00:18;;;;;;;0.10;0.10;;;;;;;;;;5109106;28;20055;-51
2023/07/11 07:02:44;;;;;;;0.10;0.10;;;;;;;;;;5109582;28;20079;-52
2023/07/11 07:05:10;;;;;;;0.10;0.10;;;;;;;;;;5110239;28;20077;-52
2023/07/11 07:07:35;;;;;;;0.10;0.10;;;;;;;;;;5124734;27;20077;-52
2023/07/11 07:10:01;;;;;;;0.10;0.10;;;;;;;;;;5146729;27;20051;-53
2023/07/11 07:12:27;;;;;;;0.10;0.10;;;;;;;;;;5130083;28;20074;-53
2023/07/11 07:14:52;;;;;;;0.10;0.10;;;;;;;;;;5129953;28;20376;-52
2023/07/11 07:17:18;;;;;;;0.10;0.10;;;;;;;;;;5129906;27;20086;-51
2023/07/11 07:19:43;;;;;;;0.10;0.10;;;;;;;;;;5129920;28;20070;-52
2023/07/11 07:22:09;;;;;;;0.10;0.10;;;;;;;;;;5130435;28;20136;-53
2023/07/11 07:24:34;;;;;;;0.10;0.10;;;;;;;;;;5130150;28;20044;-52
2023/07/11 07:27:00;;;;;;;0.10;0.10;;;;;;;;;;5129508;28;20441;-52
2023/07/11 07:29:25;;;;;;;0.10;0.10;;;;;;;;;;5129705;28;20069;-53
2023/07/11 07:31:51;;;;;;;0.10;0.10;;;;;;;;;;5134354;27;20047;-52
2023/07/11 07:34:16;;;;;;;0.15;0.15;;;;;;;;;;5148534;27;20075;-53
2023/07/11 07:36:42;;;;;;;0.10;0.10;;;;;;;;;;5135131;27;20466;-52
2023/07/11 07:39:08;;;;;;;0.10;0.10;;;;;;;;;;5123265;28;20047;-52
2023/07/11 07:41:33;;;;;;;0.10;0.10;;;;;;;;;;5112215;28;20410;-52
2023/07/11 07:43:59;;;;;;;0.20;0.20;;;;;;;;;;5113828;27;20047;-51
2023/07/11 07:46:24;;;;;;;0.10;0.10;;;;;;;;;;5129098;27;20055;-53
2023/07/11 07:48:50;;;;;;;0.10;0.10;;;;;;;;;;5129378;28;20396;-53
2023/07/11 07:51:17;;;;;;;0.10;0.10;;;;;;;;;;5131376;27;20051;-53
2023/07/11 07:53:43;;;;;;;0.10;0.10;;;;;;;;;;5150431;27;20513;-54
2023/07/11 07:56:10;;;;;;;0.10;0.10;;;;;;;;;;5149819;27;20086;-52
2023/07/11 07:58:35;;;;;;;0.10;0.10;;;;;;;;;;5150076;27;20047;-53
2023/07/11 08:01:05;;;;;;;0.17;0.17;;;;;;;;;;5137187;27;20039;-53
2023/07/11 08:03:32;;;;;;;0.10;0.10;;;;;;;;;;5129337;28;20051;-53
2023/07/11 08:05:58;;;;;;;0.10;0.10;;;;;;;;;;5128708;28;20464;-52
2023/07/11 08:08:41;;;;;;;0.10;0.10;;;;;;;;;;5132593;27;20472;-53
2023/07/11 08:11:07;;;;;;;0.10;0.10;;;;;;;;;;5142523;27;20055;-53
2023/07/11 08:13:34;;;;;;;0.10;0.10;;;;;;;;;;5137536;27;20575;-52
2023/07/11 08:16:20;;;;;;;0.10;0.10;;;;;;;;;;5117024;28;20050;-52
2023/07/11 08:18:48;;;;;;;0.10;0.10;;;;;;;;;;5132799;27;20054;-52
2023/07/11 08:21:14;;;;;;;0.10;0.10;;;;;;;;;;5134671;27;20047;-52
2023/07/11 08:23:39;;;;;;;0.10;0.10;;;;;;;;;;5132996;28;20043;-52
2023/07/11 08:26:05;;;;;;;0.10;0.10;;;;;;;;;;5132743;27;20043;-53
2023/07/11 08:28:31;;;;;;;0.10;0.10;;;;;;;;;;5132694;28;20657;-52
2023/07/11 08:30:57;;;;;;;0.10;0.10;;;;;;;;;;5132891;27;20511;-53
2023/07/11 08:33:22;;;;;;;0.10;0.10;;;;;;;;;;5132600;27;20051;-52
2023/07/11 08:35:48;;;;;;;0.10;0.10;;;;;;;;;;5135523;27;20598;-52
2023/07/11 08:38:13;;;;;;;0.10;0.10;;;;;;;;;;5131925;27;20055;-53
2023/07/11 08:40:40;;;;;;;0.10;0.10;;;;;;;;;;5122994;28;20043;-53
2023/07/11 08:43:16;;;;;;;0.10;0.10;;;;;;;;;;5112279;28;20052;-51
2023/07/11 08:45:41;;;;;;;;;;;;;;;;;;5112147;28;20322;-52
2023/07/11 08:48:24;;;;;;;0.10;0.10;;;;;;;;;;5146406;27;19965;-52
2023/07/11 08:51:02;;;;;;;0.10;0.10;;;;;;;;;;5142180;27;20043;-53
2023/07/11 08:53:37;;;;;;;0.10;0.10;;;;;;;;;;5119123;27;20080;-53
2023/07/11 08:56:23;;;;;;;0.10;0.10;;;;;;;;;;5152869;27;20128;-52
2023/07/11 08:58:49;;;;;;;0.10;0.10;;;;;;;;;;5137472;27;20043;-51
2023/07/11 09:01:24;;;;;;;0.10;0.10;;;;;;;;;;5138636;27;20051;-48
2023/07/11 09:03:50;;;;;;;0.10;0.10;;;;;;;;;;5132386;28;20054;-50
2023/07/11 09:06:18;;;;;;;0.10;0.10;;;;;;;;;;5132108;28;20053;-53
2023/07/11 09:08:45;;;;;;;0.10;0.10;;;;;;;;;;5131979;28;20058;-51
2023/07/11 09:11:15;;;;;;;0.10;0.10;;;;;;;;;;5131697;28;20043;-52
2023/07/11 09:13:54;;;;;;;0.10;0.10;;;;;;;;;;5132104;27;20046;-51
2023/07/11 09:16:36;;;;;;;0.10;0.10;;;;;;;;;;5131315;28;20108;-50
2023/07/11 09:19:22;;;;;;;0.10;0.10;;;;;;;;;;5132093;28;20051;-52
2023/07/11 09:22:02;;;;;;;0.10;0.10;;;;;;;;;;5116420;28;20047;-52
2023/07/11 09:24:41;;;;;;;0.10;0.10;;;;;;;;;;5131372;27;20043;-55
2023/07/11 09:27:15;;;;;;;0.10;0.10;;;;;;;;;;5131968;28;20066;-51
2023/07/11 09:29:41;;;;;;;0.17;0.17;;;;;;;;;;5131758;28;20051;-53
2023/07/11 09:32:09;;;;;;;0.10;0.10;;;;;;;;;;5131881;27;20070;-52
2023/07/11 09:34:36;;;;;;;0.10;0.10;;;;;;;;;;5144484;27;20051;-51
2023/07/11 09:37:12;;;;;;;0.10;0.10;;;;;;;;;;5138221;27;20086;-53
2023/07/11 09:39:48;;;;;;;0.10;0.10;;;;;;;;;;5138601;27;20042;-52
2023/07/11 09:42:18;;;;;;;0.10;0.10;;;;;;;;;;5132061;28;20055;-52
2023/07/11 09:44:56;;;;;;;0.10;0.10;;;;;;;;;;5132063;28;20047;-51
2023/07/11 09:47:22;;;;;;;0.10;0.10;;;;;;;;;;5132131;28;20091;-52
2023/07/11 09:49:48;;;;;;;0.10;0.10;;;;;;;;;;5143927;27;20546;-52
2023/07/11 09:52:20;;;;;;;0.10;0.10;;;;;;;;;;5132042;28;20039;-53
2023/07/11 09:54:46;;;;;;;0.10;0.10;;;;;;;;;;5132237;27;20526;-52
2023/07/11 09:57:28;;;;;;;0.10;0.10;;;;;;;;;;5131755;28;20633;-52
2023/07/11 09:59:58;;;;;;;0.10;0.10;;;;;;;;;;5128982;28;20480;-53
2023/07/11 10:02:44;;;;;;;0.10;0.10;;;;;;;;;;5111557;28;20048;-53
2023/07/11 10:05:13;;;;;;;0.10;0.10;;;;;;;;;;5111085;28;20039;-52
2023/07/11 10:07:39;;;;;;;0.10;0.10;;;;;;;;;;5111179;28;20052;-52
2023/07/11 10:10:13;;;;;;;0.10;0.10;;;;;;;;;;5110578;28;20087;-53
2023/07/11 10:12:40;;;;;;;0.20;0.20;;;;;;;;;;5111210;28;20047;-52
2023/07/11 10:15:12;;;;;;;0.10;0.10;;;;;;;;;;5110191;28;20066;-52
2023/07/11 10:17:40;;;;;;;0.10;0.10;;;;;;;;;;5110142;28;20391;-53
2023/07/11 10:20:12;;;;;;;0.10;0.10;;;;;;;;;;5110183;28;20442;-53
2023/07/11 10:22:44;;;;;;;;;;;;;;;;;;5111763;28;20059;-52
2023/07/11 10:27:48;;;;;;;0.10;0.10;;;;;;;;;;5188006;27;20429;-50
2023/07/11 10:30:19;;;;;;;0.10;0.10;;;;;;;;;;5167928;27;20050;-49
2023/07/11 10:32:48;;;;;;;0.10;0.10;;;;;;;;;;5168172;27;20046;-49
2023/07/11 10:35:17;;;;;;;0.10;0.10;;;;;;;;;;5167756;27;20038;-50
2023/07/11 10:37:45;;;;;;;0.10;0.10;;;;;;;;;;5157891;27;20085;-48
2023/07/11 10:40:31;;;;;;;0.10;0.10;;;;;;;;;;5167270;27;20475;-50
2023/07/11 10:43:03;;;;;;;0.10;0.10;;;;;;;;;;5163194;27;20139;-49
2023/07/11 10:45:31;;;;;;;0.10;0.10;;;;;;;;;;5165866;27;20070;-50
2023/07/11 10:48:01;;;;;;;0.10;0.10;;;;;;;;;;5167107;27;20130;-49
2023/07/11 10:50:46;;;;;;;0.10;0.10;;;;;;;;;;5167271;27;20049;-50
2023/07/11 10:53:31;;;;;;;0.28;0.28;;;;;;;;;;5152328;27;20081;-50
2023/07/11 10:56:00;;;;;;;0.10;0.10;;;;;;;;;;5167016;27;20057;-49
2023/07/11 10:58:26;;;;;;;0.10;0.10;;;;;;;;;;5167108;27;20258;-50
2023/07/11 11:00:57;;;;;;;0.10;0.10;;;;;;;;;;5160481;27;20453;-49
2023/07/11 11:03:43;;;;;;;0.10;0.10;;;;;;;;;;5146654;27;20047;-50
2023/07/11 11:06:16;;;;;;;0.10;0.10;;;;;;;;;;5130207;27;20099;-49
2023/07/11 11:09:04;;;;;;;0.20;0.20;;;;;;;;;;5145630;27;20047;-50
2023/07/11 11:11:37;;;;;;;0.10;0.10;;;;;;;;;;5130710;27;20108;-48
2023/07/11 11:14:23;;;;;;;0.10;0.10;;;;;;;;;;5146025;27;20089;-50
2023/07/11 11:16:56;;;;;;;0.10;0.10;;;;;;;;;;5129984;27;20388;-49
2023/07/11 11:19:29;;;;;;;0.10;0.10;;;;;;;;;;5146094;27;20070;-50
2023/07/11 11:22:08;;;;;;;0.15;0.15;;;;;;;;;;5145355;27;20047;-49
2023/07/11 11:24:44;;;;;;;0.10;0.10;;;;;;;;;;5145390;27;20535;-49
2023/07/11 11:27:19;;;;;;;0.10;0.10;;;;;;;;;;5145499;27;20055;-50
2023/07/11 11:32:39;;;;;;;0.10;0.10;;;;;;;;;;5187902;27;20377;-49
2023/07/11 11:35:17;;;;;;;0.20;0.20;;;;;;;;;;5162004;27;20269;-50
2023/07/11 11:37:53;;;;;;;0.10;0.10;;;;;;;;;;5166876;27;20479;-49
2023/07/11 11:40:21;;;;;;;0.10;0.10;;;;;;;;;;5165925;27;20070;-49
2023/07/11 11:42:50;;;;;;;0.15;0.15;;;;;;;;;;5167548;27;20038;-49
2023/07/11 11:45:28;;;;;;;0.20;0.20;;;;;;;;;;5165621;27;20141;-49
2023/07/11 11:48:16;;;;;;;0.10;0.10;;;;;;;;;;5151555;27;20510;-49
2023/07/11 11:50:46;;;;;;;0.10;0.10;;;;;;;;;;5167041;27;20050;-50
2023/07/11 11:53:22;;;;;;;0.10;0.10;;;;;;;;;;5166939;27;20046;-50
2023/07/11 11:55:56;;;;;;;0.20;0.20;;;;;;;;;;5166519;27;20051;-50
2023/07/11 11:59:00;;;;;;;0.10;0.10;;;;;;;;;;5166783;27;20066;-50
2023/07/11 12:01:30;;;;;;;0.10;0.10;;;;;;;;;;5129704;27;20051;-50
2023/07/11 12:03:55;;;;;;;0.20;0.20;;;;;;;;;;5125893;28;20059;-50
2023/07/11 12:06:31;;;;;;;0.10;0.10;;;;;;;;;;5125732;28;20074;-49
2023/07/11 12:09:17;;;;;;;0.10;0.10;;;;;;;;;;5125090;28;20510;-49
2023/07/11 12:11:44;;;;;;;0.10;0.10;;;;;;;;;;5110185;28;20047;-50
2023/07/11 12:14:12;;;;;;;0.10;0.10;;;;;;;;;;5125529;28;20048;-50
2023/07/11 12:16:37;;;;;;;;;;;;;;;;;;5125438;28;20055;-49
2023/07/11 12:19:26;;;;;;;0.10;0.10;;;;;;;;;;5125248;28;19969;-50
2023/07/11 12:21:56;;;;;;;0.10;0.10;;;;;;;;;;5125305;27;20043;-50
2023/07/11 12:24:24;;;;;;;0.10;0.10;;;;;;;;;;5126107;28;20111;-49
2023/07/11 12:26:52;;;;;;;0.10;0.10;;;;;;;;;;5124985;27;20054;-50
2023/07/11 12:29:38;;;;;;;0.10;0.10;;;;;;;;;;5125292;28;20043;-49
2023/07/11 12:32:23;;;;;;;0.10;0.10;;;;;;;;;;5130241;27;20146;-49
2023/07/11 12:34:54;;;;;;;0.10;0.10;;;;;;;;;;5127457;27;20051;-51
2023/07/11 12:37:20;;;;;;;0.10;0.10;;;;;;;;;;5125334;28;20479;-53
2023/07/11 12:39:53;;;;;;;0.10;0.10;;;;;;;;;;5143604;27;20043;-50
2023/07/11 12:42:37;;;;;;;0.10;0.10;;;;;;;;;;5141408;27;20546;-50
2023/07/11 12:45:11;;;;;;;0.10;0.10;;;;;;;;;;5131418;28;20050;-50
2023/07/11 12:47:37;;;;;;;0.10;0.10;;;;;;;;;;5132179;27;20323;-50
2023/07/11 12:50:03;;;;;;;0.10;0.10;;;;;;;;;;5128115;27;20304;-50
2023/07/11 12:52:28;;;;;;;0.10;0.10;;;;;;;;;;5111767;28;20241;-50
2023/07/11 12:54:54;;;;;;;0.10;0.10;;;;;;;;;;5128398;28;20406;-48
2023/07/11 12:57:23;;;;;;;0.10;0.10;;;;;;;;;;5131973;28;20133;-49
2023/07/11 12:59:49;;;;;;;0.10;0.10;;;;;;;;;;5131369;28;20047;-50
2023/07/11 13:02:17;;;;;;;0.10;0.10;;;;;;;;;;5131919;28;20082;-50
2023/07/11 13:04:43;;;;;;;;;;;;;;;;;;5132827;28;20100;-49
2023/07/11 13:07:13;;;;;;;0.10;0.10;;;;;;;;;;5131289;28;19919;-50
2023/07/11 13:09:41;;;;;;;0.10;0.10;;;;;;;;;;5130592;28;20129;-50
2023/07/11 13:12:08;;;;;;;0.10;0.10;;;;;;;;;;5131418;28;20047;-50
2023/07/11 13:14:34;;;;;;;0.10;0.10;;;;;;;;;;5131481;28;20070;-49
2023/07/11 13:16:59;;;;;;;0.10;0.10;;;;;;;;;;5130604;28;20479;-50
2023/07/11 13:19:25;;;;;;;0.10;0.10;;;;;;;;;;5131283;28;20047;-49
2023/07/11 13:21:51;;;;;;;0.10;0.10;;;;;;;;;;5131171;28;20420;-49
2023/07/11 13:24:22;;;;;;;0.20;0.20;;;;;;;;;;5131675;28;20212;-49
2023/07/11 13:26:50;;;;;;;0.10;0.10;;;;;;;;;;5130893;28;20047;-49
2023/07/11 13:29:16;;;;;;;0.10;0.10;;;;;;;;;;5131231;28;20043;-50
2023/07/11 13:31:43;;;;;;;0.10;0.10;;;;;;;;;;5130729;28;20096;-49
2023/07/11 13:34:12;;;;;;;0.20;0.20;;;;;;;;;;5130952;28;20043;-49
2023/07/11 13:36:39;;;;;;;0.20;0.20;;;;;;;;;;5149197;27;20066;-49
2023/07/11 13:39:06;;;;;;;0.10;0.10;;;;;;;;;;5151839;27;20046;-50
2023/07/11 13:41:33;;;;;;;0.10;0.10;;;;;;;;;;5131142;27;20116;-49
2023/07/11 13:43:59;;;;;;;0.10;0.10;;;;;;;;;;5130540;28;20046;-49
2023/07/11 13:46:28;;;;;;;0.10;0.10;;;;;;;;;;5130057;27;20047;-50
2023/07/11 13:48:53;;;;;;;;;;;;;;;;;;5130958;27;20185;-49
2023/07/11 13:51:20;;;;;;;0.10;0.10;;;;;;;;;;5116019;28;20333;-48
2023/07/11 13:53:48;;;;;;;0.10;0.10;;;;;;;;;;5109555;28;20051;-48
2023/07/11 13:56:14;;;;;;;0.10;0.10;;;;;;;;;;5122772;28;20532;-49
2023/07/11 13:58:39;;;;;;;0.10;0.10;;;;;;;;;;5131116;27;20138;-50
2023/07/11 14:01:09;;;;;;;0.10;0.10;;;;;;;;;;5118303;28;20058;-50
2023/07/11 14:03:38;;;;;;;0.10;0.10;;;;;;;;;;5130001;28;20138;-47
2023/07/11 14:06:04;;;;;;;0.10;0.10;;;;;;;;;;5130180;28;20047;-50
2023/07/11 14:08:30;;;;;;;0.10;0.10;;;;;;;;;;5130293;28;20043;-48
2023/07/11 14:10:55;;;;;;;0.10;0.10;;;;;;;;;;5118715;28;20075;-50
2023/07/11 14:13:22;;;;;;;0.10;0.10;;;;;;;;;;5110217;28;20043;-49
2023/07/11 14:15:48;;;;;;;0.10;0.10;;;;;;;;;;5109723;28;20051;-49
2023/07/11 14:18:13;;;;;;;0.10;0.10;;;;;;;;;;5110124;28;20043;-50
2023/07/11 14:20:39;;;;;;;0.10;0.10;;;;;;;;;;5109570;28;20044;-52
2023/07/11 14:23:18;;;;;;;0.10;0.10;;;;;;;;;;5109915;28;20052;-51
2023/07/11 14:25:43;;;;;;;0.10;0.10;;;;;;;;;;5110042;28;20039;-52
2023/07/11 14:28:11;;;;;;;0.10;0.10;;;;;;;;;;5109489;28;20051;-52
2023/07/11 14:30:36;;;;;;;0.10;0.10;;;;;;;;;;5108979;28;20059;-52
2023/07/11 14:33:04;;;;;;;0.10;0.10;;;;;;;;;;5109856;28;20371;-52
2023/07/11 14:35:29;;;;;;;0.10;0.10;;;;;;;;;;5127147;27;20533;-52
2023/07/11 14:37:55;;;;;;;0.10;0.10;;;;;;;;;;5129964;28;20043;-51
2023/07/11 14:40:24;;;;;;;0.10;0.10;;;;;;;;;;5129382;28;20051;-52
2023/07/11 14:42:49;;;;;;;0.10;0.10;;;;;;;;;;5130297;28;20078;-52
2023/07/11 14:45:17;;;;;;;0.10;0.10;;;;;;;;;;5129820;28;20051;-52
2023/07/11 14:47:44;;;;;;;0.10;0.10;;;;;;;;;;5130208;28;20047;-50
2023/07/11 14:50:17;;;;;;;0.10;0.10;;;;;;;;;;5124827;28;20131;-52
2023/07/11 14:52:43;;;;;;;0.10;0.10;;;;;;;;;;5110114;28;20173;-51
2023/07/11 14:55:10;;;;;;;0.10;0.10;;;;;;;;;;5109801;28;20047;-52
2023/07/11 14:57:40;;;;;;;0.10;0.10;;;;;;;;;;5119228;28;20055;-49